Time;durP1;ratioP1;P1;durP2;ratioP2;P2;SDS_P1;SDS_P2;PMS_P1;PMS_P2;Temp;Humidity;BMP_temperature;BMP_pressure;BME280_temperature;BME280_humidity;BME280_pressure;Samples;Min_cycle;Max_cycle;Signal;HPM_P1;HPM_P2
2022/05/07 00:02:45;;;;;;;30.27;16.23;;;11.10;99.90;;;;;;4396079;28;659339;-68
2022/05/07 00:05:32;;;;;;;26.07;15.30;;;11.10;99.90;;;;;;4420996;28;660110;-68
2022/05/07 00:08:27;;;;;;;26.30;15.17;;;11.10;99.90;;;;;;4419971;28;658279;-68
2022/05/07 00:11:20;;;;;;;31.73;14.70;;;11.10;99.90;;;;;;4392121;28;659024;-68
2022/05/07 00:14:08;;;;;;;24.50;14.23;;;11.10;99.90;;;;;;4396548;28;659485;-68
2022/05/07 00:20:01;;;;;;;25.67;13.30;;;11.20;99.90;;;;;;4366848;28;659404;-68
2022/05/07 00:22:48;;;;;;;30.30;13.83;;;11.20;99.90;;;;;;4420096;28;658872;-68
2022/05/07 00:25:35;;;;;;;26.83;14.30;;;11.20;99.90;;;;;;4398352;28;659585;-68
2022/05/07 00:28:23;;;;;;;26.50;13.70;;;11.20;99.90;;;;;;4417448;28;658507;-68
2022/05/07 00:31:12;;;;;;;27.37;13.37;;;11.20;99.90;;;;;;4411211;28;658148;-68
2022/05/07 00:33:59;;;;;;;23.17;13.43;;;11.30;99.90;;;;;;4419221;28;658808;-68
2022/05/07 00:36:46;;;;;;;21.47;13.60;;;11.30;99.90;;;;;;4398432;28;658809;-68
2022/05/07 00:39:41;;;;;;;23.67;13.20;;;11.30;99.90;;;;;;4418554;28;660393;-68
2022/05/07 00:42:28;;;;;;;34.77;13.60;;;11.30;99.90;;;;;;4399137;28;658898;-68
2022/05/07 00:45:15;;;;;;;28.67;14.07;;;11.30;99.90;;;;;;4404954;28;659077;-68
2022/05/07 00:48:04;;;;;;;29.90;13.67;;;11.30;99.90;;;;;;4424661;28;658972;-68
2022/05/07 00:53:56;;;;;;;25.23;13.27;;;11.20;99.90;;;;;;4401180;28;658686;-68
2022/05/07 00:56:43;;;;;;;23.60;13.13;;;11.20;99.90;;;;;;4420180;28;658983;-68
2022/05/07 00:59:30;;;;;;;27.13;12.90;;;11.10;99.90;;;;;;4401263;28;659408;-68
2022/05/07 01:02:17;;;;;;;22.33;11.17;;;11.10;99.90;;;;;;4419996;28;659546;-68
2022/05/07 01:05:08;;;;;;;23.57;9.63;;;11.00;99.90;;;;;;4414370;28;659080;-68
2022/05/07 01:07:55;;;;;;;21.70;8.77;;;11.10;99.90;;;;;;4406610;28;657846;-68
2022/05/07 01:10:42;;;;;;;13.27;7.07;;;11.10;99.90;;;;;;4426425;28;657824;-68
2022/05/07 01:13:37;;;;;;;13.63;6.90;;;11.10;99.90;;;;;;4441981;28;657855;-68
2022/05/07 01:16:24;;;;;;;16.73;7.40;;;11.20;99.90;;;;;;4390840;28;657893;-68
2022/05/07 01:19:12;;;;;;;15.80;7.07;;;11.20;99.90;;;;;;4401429;28;657409;-68
2022/05/07 01:22:01;;;;;;;16.13;7.83;;;11.10;99.90;;;;;;4442701;28;657634;-68
2022/05/07 01:24:48;;;;;;;14.13;7.87;;;11.20;99.90;;;;;;4418988;28;658295;-68
2022/05/07 01:27:35;;;;;;;15.18;8.43;;;11.10;99.90;;;;;;4406082;28;657818;-68
2022/05/07 01:30:23;;;;;;;14.83;8.50;;;11.20;99.90;;;;;;4421418;28;658700;-68
2022/05/07 01:33:10;;;;;;;16.97;8.83;;;11.10;99.90;;;;;;4421459;28;657785;-68
2022/05/07 01:35:58;;;;;;;15.57;7.70;;;11.00;99.90;;;;;;4478694;28;657708;-68
2022/05/07 01:38:47;;;;;;;18.97;7.20;;;11.00;99.90;;;;;;4408862;28;658084;-68
2022/05/07 01:41:34;;;;;;;17.13;6.93;;;10.90;99.90;;;;;;4419742;28;657563;-68
2022/05/07 01:44:21;;;;;;;13.43;6.33;;;10.80;99.90;;;;;;4400494;28;657495;-68
2022/05/07 01:50:13;;;;;;;13.00;6.35;;;10.90;99.90;;;;;;4397744;28;658792;-68
2022/05/07 01:53:00;;;;;;;13.93;6.03;;;10.90;99.90;;;;;;4400472;28;657578;-68
2022/05/07 01:55:49;;;;;;;11.10;6.70;;;10.80;99.90;;;;;;4417039;28;659330;-68
2022/05/07 01:58:36;;;;;;;14.33;6.73;;;10.80;99.90;;;;;;4400530;28;657709;-68
2022/05/07 02:01:24;;;;;;;15.73;6.10;;;10.80;99.90;;;;;;4420963;28;658623;-68
2022/05/07 02:04:12;;;;;;;17.37;5.80;;;10.80;99.90;;;;;;4400402;28;658526;-68
2022/05/07 02:06:59;;;;;;;14.50;5.90;;;10.70;99.90;;;;;;4421506;28;658540;-68
2022/05/07 02:09:46;;;;;;;22.53;6.33;;;10.70;99.90;;;;;;4404433;28;657981;-68
2022/05/07 02:12:35;;;;;;;15.47;6.67;;;10.70;99.90;;;;;;4421142;28;658840;-68
2022/05/07 02:15:22;;;;;;;13.60;6.40;;;10.70;99.90;;;;;;4397897;28;658395;-68
2022/05/07 02:18:09;;;;;;;18.57;5.97;;;10.70;99.90;;;;;;4423694;28;656981;-68
2022/05/07 02:20:56;;;;;;;10.07;6.13;;;10.70;99.90;;;;;;4401884;28;657272;-68
2022/05/07 02:23:43;;;;;;;13.97;5.57;;;10.60;99.90;;;;;;4421452;28;658231;-68
2022/05/07 02:26:30;;;;;;;13.13;5.63;;;10.60;99.90;;;;;;4396360;28;657906;-68
2022/05/07 02:29:20;;;;;;;10.90;4.87;;;10.60;99.90;;;;;;4420230;28;659773;-68
2022/05/07 02:32:13;;;;;;;13.13;5.37;;;10.50;99.90;;;;;;4400602;28;658962;-68
2022/05/07 02:35:00;;;;;;;9.27;4.73;;;10.50;99.90;;;;;;4378897;28;658051;-68
2022/05/07 02:37:48;;;;;;;9.60;5.30;;;10.50;99.90;;;;;;4421141;28;657951;-68
2022/05/07 02:42:33;;;;;;;10.27;5.23;;;10.60;99.90;;;;;;4415326;28;657029;-68
2022/05/07 02:43:41;;;;;;;10.87;4.90;;;10.50;99.90;;;;;;4374019;28;657966;-68
2022/05/07 02:46:30;;;;;;;15.90;5.03;;;10.50;99.90;;;;;;4419803;28;658671;-68
2022/05/07 02:49:17;;;;;;;11.60;4.80;;;10.50;99.90;;;;;;4398565;28;658444;-68
2022/05/07 02:52:06;;;;;;;14.10;5.20;;;10.40;99.90;;;;;;4399562;28;657686;-68
2022/05/07 02:54:53;;;;;;;14.77;5.27;;;10.30;99.90;;;;;;4420186;28;658648;-68
2022/05/07 02:57:41;;;;;;;8.43;4.70;;;10.40;99.90;;;;;;4402615;28;657919;-67
2022/05/07 03:00:28;;;;;;;10.97;4.50;;;10.20;99.90;;;;;;4419935;28;657443;-67
2022/05/07 03:03:17;;;;;;;9.30;5.03;;;10.20;99.90;;;;;;4396355;28;658074;-67
2022/05/07 03:06:04;;;;;;;8.23;4.40;;;10.10;99.90;;;;;;4421182;28;657263;-67
2022/05/07 03:08:52;;;;;;;6.77;4.77;;;10.10;99.90;;;;;;4400876;28;657035;-67
2022/05/07 03:11:39;;;;;;;8.97;5.13;;;10.20;99.90;;;;;;4423784;28;656117;-68
2022/05/07 03:14:26;;;;;;;8.70;5.20;;;10.20;99.90;;;;;;4402634;28;656610;-67
2022/05/07 03:17:13;;;;;;;10.60;5.13;;;10.20;99.90;;;;;;4425803;28;657976;-67
2022/05/07 03:20:06;;;;;;;10.90;5.03;;;10.10;99.90;;;;;;4399590;28;657654;-67
2022/05/07 03:22:53;;;;;;;14.53;5.13;;;10.10;99.90;;;;;;4396120;28;658550;-67
2022/05/07 03:25:40;;;;;;;18.77;5.23;;;10.10;99.90;;;;;;4400864;28;657462;-67
2022/05/07 03:28:27;;;;;;;9.47;5.53;;;10.10;99.90;;;;;;4424509;28;658286;-67
2022/05/07 03:31:15;;;;;;;16.03;5.13;;;10.20;99.90;;;;;;4418306;28;656402;-67
2022/05/07 03:34:02;;;;;;;12.33;6.07;;;10.10;99.90;;;;;;4423694;28;658077;-67
2022/05/07 03:36:52;;;;;;;10.97;5.50;;;10.20;99.90;;;;;;4418780;28;657545;-67
2022/05/07 03:39:41;;;;;;;10.87;6.37;;;10.20;99.90;;;;;;4417327;28;658260;-67
2022/05/07 03:42:33;;;;;;;15.40;5.77;;;10.20;99.90;;;;;;4396544;28;658341;-67
2022/05/07 03:45:21;;;;;;;15.50;5.70;;;10.20;99.90;;;;;;4374654;28;657960;-68
2022/05/07 03:48:09;;;;;;;13.10;7.13;;;10.10;99.90;;;;;;4419664;28;658117;-67
2022/05/07 03:50:56;;;;;;;10.50;5.27;;;10.20;99.90;;;;;;4400836;28;658144;-68
2022/05/07 03:53:43;;;;;;;17.10;6.10;;;10.10;99.90;;;;;;4419630;28;656958;-67
2022/05/07 03:56:31;;;;;;;11.30;5.47;;;10.10;99.90;;;;;;4397512;28;657380;-67
2022/05/07 03:59:19;;;;;;;11.20;5.33;;;10.10;99.90;;;;;;4419673;28;658536;-68
2022/05/07 04:02:06;;;;;;;14.43;5.77;;;10.20;99.90;;;;;;4399832;28;657689;-67
2022/05/07 04:04:53;;;;;;;13.10;5.93;;;10.20;99.90;;;;;;4418711;28;658696;-67
2022/05/07 04:07:40;;;;;;;10.60;5.73;;;10.30;99.90;;;;;;4399416;28;657504;-68
2022/05/07 04:10:29;;;;;;;13.93;5.50;;;10.40;99.90;;;;;;4426110;28;658191;-67
2022/05/07 04:13:16;;;;;;;16.83;5.73;;;10.30;99.90;;;;;;4397035;28;658248;-67
2022/05/07 04:16:04;;;;;;;11.73;6.07;;;10.40;99.90;;;;;;4419113;28;658275;-67
2022/05/07 04:18:51;;;;;;;11.32;6.30;;;10.50;99.90;;;;;;4403912;28;657490;-67
2022/05/07 04:21:39;;;;;;;13.67;6.30;;;10.60;99.90;;;;;;4422304;28;658023;-67
2022/05/07 04:24:26;;;;;;;14.60;6.40;;;10.70;99.90;;;;;;4404242;28;657916;-67
2022/05/07 04:27:14;;;;;;;14.67;5.90;;;10.80;99.90;;;;;;4424533;28;657666;-67
2022/05/07 04:30:01;;;;;;;9.03;5.63;;;10.90;99.90;;;;;;4401767;28;657505;-67
2022/05/07 04:32:49;;;;;;;12.40;5.93;;;11.00;99.90;;;;;;4422570;28;656586;-67
2022/05/07 04:35:36;;;;;;;9.50;4.70;;;10.90;99.90;;;;;;4399257;28;657686;-68
2022/05/07 04:38:23;;;;;;;10.60;5.20;;;10.90;99.90;;;;;;4423369;28;658327;-67
2022/05/07 04:41:10;;;;;;;7.97;5.40;;;11.00;99.90;;;;;;4401270;28;658219;-67
2022/05/07 04:44:01;;;;;;;10.83;5.67;;;11.10;99.90;;;;;;4427897;28;657216;-67
2022/05/07 04:46:48;;;;;;;9.90;5.70;;;11.20;99.90;;;;;;4398092;28;657768;-67
2022/05/07 04:49:36;;;;;;;11.67;5.43;;;11.40;99.90;;;;;;4407301;28;656556;-67
2022/05/07 04:52:23;;;;;;;9.63;5.17;;;11.40;99.90;;;;;;4422920;28;657914;-67
2022/05/07 04:55:10;;;;;;;14.75;5.10;;;11.60;99.90;;;;;;4401755;28;656596;-67
2022/05/07 04:57:57;;;;;;;14.83;5.87;;;11.70;99.90;;;;;;4427689;28;657623;-67
2022/05/07 05:00:46;;;;;;;13.90;5.27;;;11.80;99.90;;;;;;4420630;28;657976;-67
2022/05/07 05:03:33;;;;;;;16.10;5.33;;;11.90;99.90;;;;;;4397195;28;658416;-68
2022/05/07 05:06:20;;;;;;;10.93;4.20;;;11.90;99.90;;;;;;4401678;28;657785;-67
2022/05/07 05:09:08;;;;;;;7.40;4.97;;;12.00;99.90;;;;;;4426767;28;657862;-67
2022/05/07 05:11:55;;;;;;;12.40;4.60;;;12.20;99.90;;;;;;4405193;28;657064;-67
2022/05/07 05:17:48;;;;;;;8.93;4.67;;;12.50;99.90;;;;;;4374432;28;658596;-67
2022/05/07 05:20:36;;;;;;;9.20;4.33;;;12.70;99.90;;;;;;4401956;28;656782;-67
2022/05/07 05:23:23;;;;;;;11.63;4.57;;;12.90;99.90;;;;;;4427536;28;657755;-67
2022/05/07 05:26:10;;;;;;;7.70;3.97;;;13.00;99.90;;;;;;4403998;28;657443;-67
2022/05/07 05:28:57;;;;;;;11.33;4.23;;;13.20;99.90;;;;;;4427421;28;657150;-67
2022/05/07 05:31:45;;;;;;;9.43;4.50;;;13.40;99.90;;;;;;4417623;28;657830;-68
2022/05/07 05:34:34;;;;;;;10.87;4.67;;;13.50;99.90;;;;;;4421920;28;656011;-68
2022/05/07 05:37:21;;;;;;;11.53;4.53;;;13.70;99.90;;;;;;4399656;28;657522;-67
2022/05/07 05:40:09;;;;;;;10.73;4.67;;;13.70;99.90;;;;;;4419101;28;657378;-67
2022/05/07 05:42:56;;;;;;;18.03;4.57;;;13.80;99.90;;;;;;4401410;28;658539;-67
2022/05/07 05:45:43;;;;;;;11.17;4.37;;;13.70;99.90;;;;;;4417603;28;658316;-67
2022/05/07 05:48:31;;;;;;;10.07;4.20;;;13.80;99.90;;;;;;4390939;28;658052;-67
2022/05/07 05:51:19;;;;;;;11.00;4.07;;;13.90;99.90;;;;;;4411263;28;657789;-68
2022/05/07 05:54:06;;;;;;;10.80;4.13;;;13.90;99.90;;;;;;4394337;28;657752;-67
2022/05/07 05:56:54;;;;;;;10.87;4.50;;;13.90;99.90;;;;;;4413097;28;658925;-68
2022/05/07 05:59:41;;;;;;;10.80;4.50;;;13.90;99.90;;;;;;4391059;28;658063;-68
2022/05/07 06:02:28;;;;;;;9.87;4.63;;;14.00;99.90;;;;;;4413145;28;658762;-68
2022/05/07 06:05:16;;;;;;;10.93;4.67;;;14.00;99.90;;;;;;4391809;28;657055;-68
2022/05/07 06:08:05;;;;;;;9.03;4.80;;;14.00;99.90;;;;;;4412181;28;658026;-68
2022/05/07 06:10:54;;;;;;;7.57;4.37;;;14.10;99.90;;;;;;4391790;28;658393;-67
2022/05/07 06:13:43;;;;;;;8.90;3.93;;;14.10;99.90;;;;;;4390688;28;656803;-68
2022/05/07 06:16:30;;;;;;;11.33;4.47;;;14.20;99.90;;;;;;4391680;28;656571;-68
2022/05/07 06:19:17;;;;;;;8.87;4.33;;;14.40;99.90;;;;;;4419732;28;658002;-67
2022/05/07 06:22:05;;;;;;;9.63;4.87;;;14.40;99.90;;;;;;4411676;28;657082;-67
2022/05/07 06:28:00;;;;;;;11.23;4.70;;;14.60;99.90;;;;;;4393720;28;657920;-67
2022/05/07 06:30:48;;;;;;;9.00;4.80;;;14.50;99.90;;;;;;4404060;28;658345;-67
2022/05/07 06:33:35;;;;;;;15.47;4.30;;;14.60;99.90;;;;;;4406640;28;657154;-67
2022/05/07 06:36:22;;;;;;;9.17;4.70;;;14.50;99.90;;;;;;4413965;28;657080;-67
2022/05/07 06:39:09;;;;;;;9.67;4.77;;;14.40;99.90;;;;;;4420346;28;656800;-67
2022/05/07 06:41:58;;;;;;;10.97;4.47;;;14.40;99.90;;;;;;4391586;28;657049;-68
2022/05/07 06:44:45;;;;;;;7.97;4.35;;;14.40;99.90;;;;;;4402499;28;657761;-67
2022/05/07 06:47:33;;;;;;;10.23;4.23;;;14.40;99.90;;;;;;4430618;28;657528;-68
2022/05/07 06:50:20;;;;;;;12.73;4.30;;;14.40;99.90;;;;;;4427140;28;658053;-67
2022/05/07 06:53:07;;;;;;;7.00;3.90;;;14.40;99.90;;;;;;4433505;28;657600;-67
2022/05/07 06:55:59;;;;;;;12.47;4.27;;;14.50;99.90;;;;;;4427755;28;656461;-67
2022/05/07 06:58:48;;;;;;;14.45;4.38;;;14.40;99.90;;;;;;4410097;28;657903;-67
2022/05/07 07:01:35;;;;;;;6.67;3.53;;;14.60;99.90;;;;;;4420617;28;657549;-67
2022/05/07 07:04:22;;;;;;;14.07;3.70;;;14.60;99.90;;;;;;4434235;28;656803;-67
2022/05/07 07:07:09;;;;;;;9.77;3.53;;;14.60;99.90;;;;;;4445026;28;657142;-67
2022/05/07 07:09:57;;;;;;;12.30;3.97;;;14.60;99.90;;;;;;4411461;28;657083;-67
2022/05/07 07:12:44;;;;;;;8.93;4.17;;;14.70;99.90;;;;;;4430911;28;657112;-67
2022/05/07 07:15:33;;;;;;;6.27;3.80;;;14.70;99.90;;;;;;4420439;28;656587;-67
2022/05/07 07:18:20;;;;;;;11.97;3.80;;;14.90;99.90;;;;;;4424031;28;657188;-67
2022/05/07 07:21:07;;;;;;;11.53;4.00;;;14.70;99.90;;;;;;4442630;28;658393;-67
2022/05/07 07:23:54;;;;;;;11.90;4.17;;;14.70;99.90;;;;;;4442316;28;657496;-67
2022/05/07 07:26:42;;;;;;;10.57;4.17;;;14.80;99.90;;;;;;4426992;28;658089;-67
2022/05/07 07:29:29;;;;;;;10.63;4.20;;;14.70;99.90;;;;;;4438304;28;657408;-67
2022/05/07 07:32:17;;;;;;;9.00;4.43;;;14.80;99.90;;;;;;4424359;28;657925;-67
2022/05/07 07:35:06;;;;;;;14.87;4.70;;;14.80;99.90;;;;;;4440151;28;656647;-67
2022/05/07 07:37:53;;;;;;;10.97;5.10;;;14.90;99.90;;;;;;4442852;28;657513;-67
2022/05/07 07:40:41;;;;;;;8.93;4.27;;;15.00;99.90;;;;;;4426469;28;659305;-67
2022/05/07 07:43:28;;;;;;;12.23;4.50;;;15.20;99.90;;;;;;4446660;28;657203;-67
2022/05/07 07:49:21;;;;;;;10.20;4.10;;;15.30;99.90;;;;;;4411608;28;657638;-68
2022/05/07 07:52:09;;;;;;;11.20;4.23;;;15.10;99.90;;;;;;4447196;28;657870;-67
2022/05/07 07:54:56;;;;;;;9.97;4.57;;;15.10;99.90;;;;;;4426601;28;657869;-67
2022/05/07 07:57:43;;;;;;;15.20;5.23;;;15.20;99.90;;;;;;4445820;28;656563;-67
2022/05/07 08:00:30;;;;;;;14.63;4.83;;;15.10;99.90;;;;;;4427081;28;658021;-67
2022/05/07 08:03:19;;;;;;;9.77;4.53;;;15.30;99.90;;;;;;4437270;28;657003;-67
2022/05/07 08:06:07;;;;;;;9.20;4.27;;;15.30;99.90;;;;;;4429658;28;656413;-67
2022/05/07 08:11:59;;;;;;;8.60;4.70;;;15.40;99.90;;;;;;4423796;28;657134;-67
2022/05/07 08:14:47;;;;;;;8.27;4.47;;;15.40;99.90;;;;;;4434731;28;656624;-67
2022/05/07 08:17:34;;;;;;;11.53;4.63;;;15.40;99.90;;;;;;4447397;28;657240;-67
2022/05/07 08:20:21;;;;;;;9.43;4.43;;;15.70;99.90;;;;;;4426434;28;657504;-67
2022/05/07 08:23:10;;;;;;;9.87;4.80;;;15.70;99.90;;;;;;4449775;28;657103;-67
2022/05/07 08:25:57;;;;;;;11.70;4.60;;;15.60;99.90;;;;;;4426250;28;657224;-67
2022/05/07 08:28:44;;;;;;;11.37;4.53;;;15.90;99.80;;;;;;4454719;28;656897;-68
2022/05/07 08:31:31;;;;;;;10.43;4.67;;;15.80;97.20;;;;;;4428319;28;658482;-68
2022/05/07 08:34:18;;;;;;;8.37;4.30;;;15.70;99.70;;;;;;4437547;28;658498;-68
2022/05/07 08:37:06;;;;;;;11.13;4.60;;;15.60;99.90;;;;;;4428814;28;657842;-68
2022/05/07 08:40:01;;;;;;;7.83;4.57;;;15.80;99.90;;;;;;4456281;28;658058;-67
2022/05/07 08:42:49;;;;;;;10.53;4.83;;;15.70;99.90;;;;;;4419429;28;657121;-68
2022/05/07 08:45:36;;;;;;;11.83;4.53;;;15.80;99.90;;;;;;4407350;28;657694;-67
2022/05/07 08:48:23;;;;;;;10.80;4.33;;;16.00;99.90;;;;;;4427140;28;658302;-67
2022/05/07 08:51:11;;;;;;;8.83;4.70;;;15.90;99.90;;;;;;4408308;28;658152;-67
2022/05/07 08:53:58;;;;;;;14.50;4.63;;;15.80;99.90;;;;;;4430859;28;657260;-67
2022/05/07 08:56:46;;;;;;;10.47;5.23;;;16.00;99.90;;;;;;4409531;28;657679;-67
2022/05/07 08:59:34;;;;;;;10.30;5.03;;;15.90;96.40;;;;;;4432953;28;659174;-67
2022/05/07 09:02:21;;;;;;;8.20;4.47;;;15.90;98.20;;;;;;4391892;28;658149;-67
2022/05/07 09:05:09;;;;;;;14.27;4.90;;;16.10;99.90;;;;;;4414917;28;656735;-67
2022/05/07 09:07:58;;;;;;;9.67;5.07;;;16.10;91.50;;;;;;4391968;28;657593;-67
2022/05/07 09:10:45;;;;;;;13.93;5.40;;;16.10;94.30;;;;;;4411851;28;656779;-67
2022/05/07 09:13:36;;;;;;;9.27;4.40;;;16.10;99.90;;;;;;4410317;28;658618;-68
2022/05/07 09:16:23;;;;;;;12.60;5.10;;;16.40;98.20;;;;;;4388781;28;657473;-68
2022/05/07 09:19:21;;;;;;;14.53;6.10;;;16.70;96.50;;;;;;4391335;28;657717;-68
2022/05/07 09:22:09;;;;;;;10.37;4.97;;;16.50;90.00;;;;;;4386253;28;657486;-68
2022/05/07 09:24:56;;;;;;;12.13;5.80;;;16.30;97.00;;;;;;4391364;28;657833;-68
2022/05/07 09:27:46;;;;;;;12.23;5.00;;;16.70;91.60;;;;;;4419746;28;658701;-67
2022/05/07 09:30:35;;;;;;;14.73;5.20;;;16.40;86.30;;;;;;4392488;28;657778;-67
2022/05/07 09:33:32;;;;;;;11.23;5.23;;;16.10;93.70;;;;;;4387487;28;658145;-67
2022/05/07 09:36:18;;;;;;;10.17;5.10;;;16.20;90.20;;;;;;4386943;28;657633;-68
2022/05/07 09:39:05;;;;;;;13.67;4.77;;;16.30;90.30;;;;;;4394322;28;658101;-68
2022/05/07 09:41:58;;;;;;;9.80;5.13;;;16.60;94.30;;;;;;4413389;28;658156;-67
2022/05/07 09:44:45;;;;;;;12.17;4.47;;;16.30;99.90;;;;;;4399363;28;656444;-68
2022/05/07 09:47:34;;;;;;;7.67;4.57;;;16.40;99.90;;;;;;4421893;28;658338;-68
2022/05/07 09:50:23;;;;;;;8.50;4.67;;;16.40;91.10;;;;;;4394965;28;656570;-68
2022/05/07 09:59:21;;;;;;;13.60;5.00;;;16.60;90.90;;;;;;4363487;28;658046;-67
2022/05/07 10:02:17;;;;;;;10.27;4.70;;;16.50;98.70;;;;;;4416709;28;658895;-67
2022/05/07 10:05:21;;;;;;;10.80;5.03;;;16.20;93.30;;;;;;4387026;28;657883;-68
2022/05/07 10:08:17;;;;;;;9.60;4.83;;;16.40;98.20;;;;;;4396843;28;657987;-68
2022/05/07 10:11:04;;;;;;;9.60;4.70;;;16.30;99.90;;;;;;4391469;28;656304;-67
2022/05/07 10:13:55;;;;;;;11.57;5.13;;;16.20;92.00;;;;;;4397249;28;657836;-67
2022/05/07 10:16:42;;;;;;;13.07;5.83;;;16.40;93.00;;;;;;4404741;28;658124;-67
2022/05/07 10:19:38;;;;;;;12.03;5.30;;;16.30;93.20;;;;;;4416178;28;657843;-67
2022/05/07 10:22:27;;;;;;;13.03;5.40;;;16.30;96.90;;;;;;4390457;28;657999;-67
2022/05/07 10:25:14;;;;;;;13.50;5.50;;;16.30;96.40;;;;;;4413408;28;657142;-67
2022/05/07 10:28:08;;;;;;;11.60;4.80;;;16.60;92.30;;;;;;4390361;28;657336;-67
2022/05/07 10:30:56;;;;;;;12.47;5.03;;;16.80;92.60;;;;;;4365508;28;657944;-67
2022/05/07 10:33:43;;;;;;;16.07;5.83;;;17.00;91.10;;;;;;4412473;28;658114;-68
2022/05/07 10:36:35;;;;;;;11.03;5.33;;;16.90;87.60;;;;;;4406271;28;657784;-68
2022/05/07 10:39:24;;;;;;;10.68;4.82;;;17.20;90.40;;;;;;4389965;28;658241;-67
2022/05/07 10:42:14;;;;;;;9.07;5.30;;;17.20;90.30;;;;;;4390170;28;657963;-67
2022/05/07 10:45:01;;;;;;;12.57;5.40;;;17.30;85.40;;;;;;4391051;28;656518;-67
2022/05/07 10:47:55;;;;;;;10.17;5.33;;;17.40;92.40;;;;;;4415342;28;658098;-67
2022/05/07 10:50:42;;;;;;;13.60;5.50;;;17.10;86.70;;;;;;4362500;28;658291;-67
2022/05/07 10:53:36;;;;;;;10.67;5.23;;;17.40;81.00;;;;;;4408868;28;657522;-67
2022/05/07 10:56:25;;;;;;;10.43;5.30;;;17.00;88.80;;;;;;4385645;28;658106;-67
2022/05/07 10:59:12;;;;;;;11.60;5.37;;;16.90;91.30;;;;;;4385658;28;658085;-67
2022/05/07 11:02:06;;;;;;;17.63;5.10;;;17.00;92.00;;;;;;4408412;28;657985;-68
2022/05/07 11:04:53;;;;;;;16.90;8.27;;;16.90;86.10;;;;;;4385878;28;657248;-67
2022/05/07 11:07:41;;;;;;;13.03;5.23;;;16.60;91.80;;;;;;4390061;28;657616;-67
2022/05/07 11:10:28;;;;;;;10.23;5.13;;;16.80;89.30;;;;;;4422697;28;658448;-67
2022/05/07 11:13:19;;;;;;;14.77;5.65;;;16.80;92.70;;;;;;4393717;28;657197;-67
2022/05/07 11:16:07;;;;;;;10.43;5.53;;;16.60;90.90;;;;;;4386861;28;657934;-67
2022/05/07 11:18:55;;;;;;;11.83;5.20;;;16.50;92.80;;;;;;4407653;28;657563;-67
2022/05/07 11:21:45;;;;;;;9.10;4.97;;;16.30;89.10;;;;;;4389080;28;658216;-67
2022/05/07 11:24:33;;;;;;;11.90;5.03;;;16.40;90.60;;;;;;4390315;28;657394;-68
2022/05/07 11:27:20;;;;;;;8.87;5.03;;;16.70;99.90;;;;;;4407015;28;657805;-68
2022/05/07 11:30:12;;;;;;;13.27;5.57;;;16.50;90.30;;;;;;4425557;28;657399;-67
2022/05/07 11:33:04;;;;;;;13.53;5.43;;;16.50;88.00;;;;;;4398727;28;657711;-67
2022/05/07 11:36:01;;;;;;;19.50;5.77;;;16.50;88.00;;;;;;4362340;28;659063;-67
2022/05/07 11:38:57;;;;;;;12.87;5.40;;;16.60;89.80;;;;;;4384868;28;658181;-67
2022/05/07 11:41:52;;;;;;;11.13;5.07;;;17.00;86.10;;;;;;4384926;28;657942;-68
2022/05/07 11:47:59;;;;;;;8.23;5.87;;;17.30;92.40;;;;;;4376674;28;657926;-68
2022/05/07 11:50:51;;;;;;;9.93;5.43;;;17.20;78.90;;;;;;4367066;28;656766;-67
2022/05/07 11:53:39;;;;;;;9.27;5.30;;;17.40;80.90;;;;;;4382778;28;656484;-68
2022/05/07 11:56:26;;;;;;;18.97;6.00;;;17.40;83.00;;;;;;4388683;28;656411;-68
2022/05/07 11:59:14;;;;;;;8.43;5.40;;;17.00;80.00;;;;;;4407462;28;658072;-67
2022/05/07 12:02:02;;;;;;;13.77;5.43;;;17.20;84.50;;;;;;4390923;28;656737;-67
2022/05/07 12:04:58;;;;;;;13.97;5.67;;;17.00;83.10;;;;;;4408792;28;657925;-68
2022/05/07 12:07:47;;;;;;;11.80;5.67;;;17.10;84.90;;;;;;4366762;28;658168;-67
2022/05/07 12:10:34;;;;;;;9.77;5.53;;;17.10;83.20;;;;;;4407493;28;657161;-67
2022/05/07 12:13:22;;;;;;;10.17;5.53;;;17.20;79.80;;;;;;4389674;28;656520;-67
2022/05/07 12:19:14;;;;;;;12.27;5.30;;;17.30;81.90;;;;;;4386063;28;657485;-67
2022/05/07 12:31:17;;;;;;;10.57;5.90;;;17.90;75.70;;;;;;4361807;28;657779;-67
2022/05/07 12:34:05;;;;;;;17.23;6.13;;;17.70;78.10;;;;;;4406259;28;657502;-67
2022/05/07 12:36:53;;;;;;;13.33;5.90;;;18.30;78.40;;;;;;4407740;28;658456;-67
2022/05/07 12:39:42;;;;;;;13.40;6.37;;;17.80;74.70;;;;;;4412026;28;658021;-67
2022/05/07 12:42:29;;;;;;;14.73;6.90;;;17.50;73.20;;;;;;4416249;28;657274;-67
2022/05/07 12:45:16;;;;;;;22.80;6.30;;;18.20;78.60;;;;;;4395725;28;657620;-68
2022/05/07 12:48:04;;;;;;;13.20;6.13;;;18.60;76.60;;;;;;4415896;28;657735;-67
2022/05/07 12:50:51;;;;;;;16.87;6.50;;;18.10;74.10;;;;;;4395320;28;657735;-68
2022/05/07 12:53:38;;;;;;;12.57;5.73;;;18.20;74.20;;;;;;4418563;28;658436;-67
2022/05/07 12:56:27;;;;;;;11.23;5.60;;;18.50;79.00;;;;;;4391677;28;657698;-68
2022/05/07 12:59:14;;;;;;;10.03;6.10;;;18.60;76.80;;;;;;4410184;28;657757;-68
2022/05/07 13:02:03;;;;;;;10.60;5.40;;;18.70;78.80;;;;;;4391734;28;659116;-68
2022/05/07 13:04:50;;;;;;;10.97;5.80;;;18.80;80.70;;;;;;4391784;28;657743;-68
2022/05/07 13:07:39;;;;;;;12.20;6.50;;;19.20;72.80;;;;;;4412720;28;659033;-67
2022/05/07 13:10:27;;;;;;;9.60;6.27;;;18.50;71.00;;;;;;4394329;28;658166;-68
2022/05/07 13:13:17;;;;;;;14.70;5.83;;;18.70;72.90;;;;;;4423581;28;657029;-68
2022/05/07 13:16:04;;;;;;;7.00;5.07;;;19.00;73.20;;;;;;4390350;28;657986;-67
2022/05/07 13:18:52;;;;;;;12.10;5.77;;;18.60;70.20;;;;;;4392125;28;657647;-67
2022/05/07 13:21:39;;;;;;;11.97;5.47;;;18.40;72.90;;;;;;4420391;28;657162;-68
2022/05/07 13:24:26;;;;;;;10.17;5.73;;;18.10;70.90;;;;;;4396823;28;657316;-67
2022/05/07 13:27:13;;;;;;;13.27;5.80;;;17.80;71.90;;;;;;4413320;28;658419;-67
2022/05/07 13:30:02;;;;;;;13.80;5.73;;;18.20;74.20;;;;;;4402444;28;658022;-67
2022/05/07 13:32:49;;;;;;;9.37;5.67;;;17.70;73.20;;;;;;4413577;28;657569;-67
2022/05/07 13:35:36;;;;;;;11.02;5.38;;;18.00;72.90;;;;;;4395445;28;656820;-67
2022/05/07 13:38:24;;;;;;;10.03;5.00;;;17.70;73.30;;;;;;4408104;28;658188;-67
2022/05/07 13:41:13;;;;;;;11.70;5.60;;;17.60;75.30;;;;;;4394478;28;657684;-67
2022/05/07 13:44:01;;;;;;;9.60;5.20;;;17.60;78.10;;;;;;4394335;28;657838;-67
2022/05/07 13:46:50;;;;;;;12.90;5.67;;;17.50;78.40;;;;;;4427688;28;656973;-67
2022/05/07 13:49:37;;;;;;;13.37;5.80;;;17.30;76.50;;;;;;4390195;28;658549;-67
2022/05/07 13:52:24;;;;;;;12.03;5.93;;;17.60;83.40;;;;;;4412974;28;657722;-67
2022/05/07 13:55:12;;;;;;;8.87;5.40;;;18.00;80.90;;;;;;4394299;28;657984;-67
2022/05/07 13:57:59;;;;;;;12.50;5.40;;;17.50;83.10;;;;;;4414673;28;656546;-67
2022/05/07 14:00:47;;;;;;;11.23;5.40;;;17.30;85.50;;;;;;4397702;28;657823;-67
2022/05/07 14:03:35;;;;;;;35.90;12.93;;;17.60;78.60;;;;;;4421444;28;657314;-67
2022/05/07 14:06:22;;;;;;;16.87;6.73;;;18.10;77.70;;;;;;4388850;28;659828;-67
2022/05/07 14:09:12;;;;;;;12.87;6.33;;;18.00;81.10;;;;;;4412409;28;658166;-67
2022/05/07 14:12:00;;;;;;;11.93;5.13;;;18.20;80.30;;;;;;4412878;28;657721;-67
2022/05/07 14:14:47;;;;;;;11.07;5.30;;;17.80;75.80;;;;;;4389705;28;658625;-67
2022/05/07 14:17:35;;;;;;;10.77;5.27;;;18.50;85.00;;;;;;4416641;28;658559;-68
2022/05/07 14:20:25;;;;;;;8.37;4.93;;;18.80;79.30;;;;;;4414039;28;658003;-67
2022/05/07 14:23:14;;;;;;;6.40;4.00;;;18.70;73.10;;;;;;4394801;28;657746;-68
2022/05/07 14:26:01;;;;;;;7.87;4.60;;;18.20;79.10;;;;;;4395045;28;656584;-67
2022/05/07 14:28:48;;;;;;;7.93;4.63;;;18.40;74.70;;;;;;4413935;28;656745;-67
2022/05/07 14:31:36;;;;;;;8.20;4.30;;;17.90;72.40;;;;;;4394931;28;656509;-67
2022/05/07 14:34:23;;;;;;;10.67;4.20;;;18.20;75.70;;;;;;4409634;28;657463;-67
2022/05/07 14:37:12;;;;;;;10.13;4.83;;;18.00;74.50;;;;;;4393439;28;657741;-67
2022/05/07 14:40:28;;;;;;;14.57;6.87;;;18.70;72.90;;;;;;4408500;28;657743;-67
2022/05/07 14:43:07;;;;;;;11.67;6.40;;;19.00;76.60;;;;;;4387056;28;657959;-67
2022/05/07 14:45:54;;;;;;;11.40;5.33;;;18.50;70.80;;;;;;4437190;28;658061;-67
2022/05/07 14:48:41;;;;;;;18.37;6.60;;;18.70;74.40;;;;;;4397653;28;657985;-67
2022/05/07 14:51:29;;;;;;;11.30;4.83;;;18.50;75.50;;;;;;4428871;28;658060;-68
2022/05/07 14:54:17;;;;;;;8.87;4.63;;;19.00;77.50;;;;;;4409653;28;657236;-67
2022/05/07 14:57:05;;;;;;;13.53;5.70;;;18.60;75.20;;;;;;4429598;28;656509;-67
2022/05/07 14:59:52;;;;;;;14.13;5.33;;;19.10;78.00;;;;;;4405914;28;658624;-67